createdAt,value
2019-03-29T00:02:59.078Z,98.70
2019-03-29T00:18:28.503Z,98.50
2019-03-29T00:44:20.882Z,98.90
2019-03-29T00:59:50.965Z,98.50
2019-03-29T01:05:00.580Z,98.40
2019-03-29T01:12:45.970Z,98.40
2019-03-29T01:15:21.695Z,98.40
2019-03-29T01:17:56.723Z,98.50
2019-03-29T01:25:41.581Z,98.40
2019-03-29T01:36:02.068Z,98.70
2019-03-29T01:41:13.104Z,98.70
2019-03-29T01:43:48.224Z,98.50
2019-03-29T01:46:23.280Z,98.40
2019-03-29T01:56:43.235Z,98.10
2019-03-29T01:59:18.765Z,98.30
2019-03-29T02:04:29.672Z,98.10
2019-03-29T02:07:04.690Z,98.20
2019-03-29T02:09:40.115Z,98.30
2019-03-29T02:14:50.086Z,98.30
2019-03-29T02:17:25.638Z,98.40
2019-03-29T02:20:00.685Z,98.50
2019-03-29T02:22:36.299Z,98.40
2019-03-29T02:25:13.441Z,98.40
2019-03-29T02:27:48.497Z,98.40
2019-03-29T02:32:58.112Z,98.30
2019-03-29T02:35:33.534Z,98.50
2019-03-29T02:38:08.899Z,98.50
2019-03-29T02:45:55.346Z,98.30
2019-03-29T02:48:31.927Z,98.50
2019-03-29T02:51:07.001Z,98.50
2019-03-29T02:53:43.103Z,98.60
2019-03-29T02:56:19.038Z,98.60
2019-03-29T02:58:55.402Z,98.50
2019-03-29T03:14:24.500Z,98.50
2019-03-29T03:16:59.939Z,98.20
2019-03-29T03:27:20.185Z,98.30
2019-03-29T03:29:55.496Z,98.10
2019-03-29T03:45:27.155Z,98.20
2019-03-29T03:50:44.405Z,98.30
2019-03-29T04:01:04.763Z,98.60
2019-03-29T04:08:50.268Z,98.50
2019-03-29T04:11:25.849Z,98.40
2019-03-29T04:14:01.276Z,98.40
2019-03-29T04:16:36.413Z,98.40
2019-03-29T04:21:49.828Z,98.70
2019-03-29T04:32:10.707Z,98.60
2019-03-29T04:45:08.101Z,98.50
2019-03-29T04:50:18.006Z,98.30
2019-03-29T04:52:53.062Z,98.30
2019-03-29T05:05:47.745Z,98.30
2019-03-29T05:16:07.946Z,98.20
2019-03-29T05:47:07.349Z,97.60
2019-03-29T05:49:43.741Z,97.20
2019-03-29T05:52:19.281Z,97.10
2019-03-29T05:57:29.806Z,96.90
2019-03-29T06:00:08.852Z,96.50
2019-03-29T06:02:44.949Z,96.60
2019-03-29T06:15:41.385Z,95.80
2019-03-29T06:18:16.434Z,95.50
2019-03-29T06:23:27.967Z,95.20
2019-03-29T06:26:03.738Z,95.00
2019-03-29T06:31:13.617Z,95.00
2019-03-29T06:33:48.695Z,94.80
2019-03-29T06:39:01.087Z,94.90
2019-03-29T06:41:35.955Z,94.60
2019-03-29T06:44:11.077Z,94.20
2019-03-29T06:46:46.623Z,93.90
2019-03-29T06:49:22.813Z,94.00
2019-03-29T06:54:32.395Z,93.30
2019-03-29T06:57:07.740Z,93.30
2019-03-29T06:59:44.115Z,93.40
2019-03-29T07:02:19.183Z,93.10
2019-03-29T07:10:05.210Z,93.10
2019-03-29T07:17:49.915Z,92.60
2019-03-29T07:22:59.758Z,92.10
2019-03-29T07:25:35.781Z,92.00
2019-03-29T07:28:12.216Z,91.90
2019-03-29T07:30:47.316Z,91.70
2019-03-29T07:33:22.456Z,91.40
2019-03-29T07:35:58.948Z,91.30
2019-03-29T07:38:34.054Z,91.40
2019-03-29T07:41:09.232Z,91.10
2019-03-29T07:43:44.334Z,91.50
2019-03-29T07:46:19.940Z,91.20
2019-03-29T07:56:41.617Z,90.80
2019-03-29T07:59:18.043Z,90.90
2019-03-29T08:01:53.191Z,90.70
2019-03-29T08:07:06.240Z,89.20
2019-03-29T08:09:43.338Z,88.60
2019-03-29T08:12:19.795Z,88.40
2019-03-29T08:14:54.915Z,88.70
2019-03-29T08:17:30.123Z,88.50
2019-03-29T08:20:37.470Z,89.20
2019-03-29T08:22:43.374Z,86.70
2019-03-29T08:25:18.816Z,86.50
2019-03-29T08:27:54.000Z,86.10
2019-03-29T08:35:38.765Z,82.90
2019-03-29T08:38:14.213Z,83.80
2019-03-29T08:40:49.392Z,82.90
2019-03-29T08:43:25.476Z,82.70
2019-03-29T08:46:00.577Z,82.30
2019-03-29T08:48:36.858Z,80.50
2019-03-29T08:51:12.349Z,81.40
2019-03-29T08:53:47.790Z,81.50
2019-03-29T08:56:22.897Z,79.60
2019-03-29T08:58:59.814Z,79.80
2019-03-29T09:01:35.347Z,79.90
2019-03-29T09:04:12.004Z,80.70
2019-03-29T09:06:53.188Z,79.20
2019-03-29T09:09:24.046Z,78.70
2019-03-29T09:12:13.354Z,79.70
2019-03-29T09:14:37.202Z,79.80
2019-03-29T09:19:47.386Z,79.10
2019-03-29T09:24:57.582Z,78.30
2019-03-29T09:27:33.102Z,79.50
2019-03-29T09:30:08.708Z,80.80
2019-03-29T09:32:43.863Z,81.10
2019-03-29T09:35:19.095Z,80.50
2019-03-29T09:37:56.525Z,80.80
2019-03-29T09:40:31.738Z,80.90
2019-03-29T09:43:08.806Z,81.50
2019-03-29T09:48:20.955Z,81.80
2019-03-29T09:50:57.105Z,83.00
2019-03-29T09:58:45.059Z,83.60
2019-03-29T10:01:20.906Z,83.30
2019-03-29T10:03:56.583Z,83.10
2019-03-29T10:11:41.923Z,80.80
2019-03-29T10:19:27.489Z,80.00
2019-03-29T10:22:03.702Z,80.60
2019-03-29T10:24:38.857Z,79.80
2019-03-29T10:27:14.873Z,79.90
2019-03-29T10:29:50.014Z,80.00
2019-03-29T10:32:25.091Z,79.40
2019-03-29T10:35:00.623Z,79.50
2019-03-29T10:37:36.025Z,79.80
2019-03-29T10:40:12.556Z,79.30
2019-03-29T10:45:26.088Z,78.80
2019-03-29T10:48:06.126Z,77.00
2019-03-29T10:50:43.197Z,76.70
2019-03-29T10:53:19.813Z,75.90
2019-03-29T10:55:54.876Z,74.20
2019-03-29T10:58:31.659Z,73.50
2019-03-29T11:01:07.335Z,72.00
2019-03-29T11:03:46.057Z,71.90
2019-03-29T11:06:21.219Z,70.40
2019-03-29T11:08:56.731Z,70.10
2019-03-29T11:11:32.276Z,67.90
2019-03-29T11:14:07.455Z,67.30
2019-03-29T11:19:19.219Z,65.40
2019-03-29T11:21:55.295Z,63.40
2019-03-29T11:24:31.358Z,62.40
2019-03-29T11:27:07.846Z,62.50
2019-03-29T11:32:19.020Z,64.50
2019-03-29T11:34:54.071Z,64.40
2019-03-29T11:37:29.219Z,64.10
2019-03-29T11:40:07.321Z,63.30
2019-03-29T11:42:42.870Z,63.00
2019-03-29T11:48:07.518Z,61.40
2019-03-29T11:50:32.197Z,61.40
2019-03-29T11:53:07.365Z,62.00
2019-03-29T11:55:43.746Z,61.90
2019-03-29T11:58:19.021Z,61.30
2019-03-29T12:03:30.055Z,62.40
2019-03-29T12:06:05.208Z,63.60
2019-03-29T12:08:41.694Z,64.00
2019-03-29T12:11:16.773Z,64.60
2019-03-29T12:13:51.942Z,65.00
2019-03-29T12:16:27.491Z,64.60
2019-03-29T12:21:40.133Z,65.30
2019-03-29T12:24:15.594Z,63.40
2019-03-29T12:26:51.142Z,63.10
2019-03-29T12:29:26.299Z,62.70
2019-03-29T12:32:04.004Z,62.30
2019-03-29T12:34:39.734Z,62.40
2019-03-29T12:37:14.815Z,62.20
2019-03-29T12:39:49.981Z,62.20
2019-03-29T12:42:27.297Z,62.80
2019-03-29T12:45:02.448Z,63.00
2019-03-29T12:47:37.661Z,63.40
2019-03-29T12:50:14.324Z,62.60
2019-03-29T12:52:49.427Z,62.90
2019-03-29T12:55:29.304Z,63.00
2019-03-29T12:58:04.523Z,63.10
2019-03-29T13:00:39.939Z,61.70
2019-03-29T13:03:15.289Z,62.00
2019-03-29T13:05:50.461Z,62.00
2019-03-29T13:08:25.556Z,62.00
2019-03-29T13:11:01.753Z,62.50
2019-03-29T13:13:36.879Z,63.30
2019-03-29T13:16:11.992Z,63.80
2019-03-29T13:18:47.228Z,63.70
2019-03-29T13:21:22.380Z,64.10
2019-03-29T13:23:58.221Z,64.40
2019-03-29T13:26:35.713Z,64.60
2019-03-29T13:29:11.846Z,64.90
2019-03-29T13:31:47.465Z,65.10
2019-03-29T13:34:22.576Z,65.00
2019-03-29T13:37:01.155Z,65.00
2019-03-29T13:39:36.923Z,64.80
2019-03-29T13:42:12.059Z,63.90
2019-03-29T13:44:47.590Z,63.90
2019-03-29T13:47:24.572Z,63.30
2019-03-29T13:50:01.018Z,63.10
2019-03-29T13:52:36.062Z,64.50
2019-03-29T13:55:13.716Z,64.30
2019-03-29T13:57:50.232Z,64.70
2019-03-29T14:00:28.092Z,65.90
2019-03-29T14:08:16.435Z,64.80
2019-03-29T14:10:51.604Z,64.90
2019-03-29T14:13:26.820Z,65.30
2019-03-29T14:16:02.065Z,66.30
2019-03-29T14:18:38.454Z,65.70
2019-03-29T14:21:13.615Z,66.80
2019-03-29T14:23:48.854Z,67.10
2019-03-29T14:26:24.006Z,68.00
2019-03-29T14:29:00.201Z,69.00
2019-03-29T14:31:35.810Z,68.80
2019-03-29T14:34:10.875Z,69.20
2019-03-29T14:36:46.013Z,68.30
2019-03-29T14:39:21.155Z,66.70
2019-03-29T14:41:56.595Z,66.40
2019-03-29T14:44:32.091Z,66.30
2019-03-29T14:47:08.186Z,66.00
2019-03-29T14:49:43.662Z,65.90
2019-03-29T14:52:19.123Z,66.00
2019-03-29T14:54:54.847Z,65.80
2019-03-29T14:57:31.297Z,65.80
2019-03-29T15:00:14.219Z,65.70
2019-03-29T15:02:51.410Z,66.10
2019-03-29T15:05:27.879Z,66.70
2019-03-29T15:08:03.419Z,66.60
2019-03-29T15:10:39.135Z,66.60
2019-03-29T15:13:15.130Z,66.70
2019-03-29T15:15:53.297Z,66.60
2019-03-29T15:18:28.423Z,66.50
2019-03-29T15:21:04.649Z,66.60
2019-03-29T15:23:44.560Z,65.90
2019-03-29T15:26:20.160Z,65.10
2019-03-29T15:28:55.238Z,65.80
2019-03-29T15:31:30.407Z,65.70
2019-03-29T15:34:05.667Z,65.90
2019-03-29T15:36:42.223Z,66.00
2019-03-29T15:39:17.431Z,65.30
2019-03-29T15:41:52.589Z,65.60
2019-03-29T15:44:28.268Z,65.30
2019-03-29T15:47:03.416Z,64.60
2019-03-29T15:49:38.577Z,64.90
2019-03-29T15:52:13.664Z,65.10
2019-03-29T15:54:48.966Z,65.70
2019-03-29T15:57:24.107Z,66.10
2019-03-29T16:02:34.245Z,65.90
2019-03-29T16:05:11.935Z,66.40
2019-03-29T16:07:47.458Z,66.50
2019-03-29T16:10:23.970Z,66.70
2019-03-29T16:13:01.698Z,67.20
2019-03-29T16:15:38.496Z,67.20
2019-03-29T16:18:13.782Z,67.00
2019-03-29T16:20:49.209Z,67.10
2019-03-29T16:23:24.338Z,67.00
2019-03-29T16:25:59.802Z,67.70
2019-03-29T16:28:34.969Z,67.70
2019-03-29T16:31:10.999Z,67.70
2019-03-29T16:36:21.722Z,68.30
2019-03-29T16:38:57.076Z,68.10
2019-03-29T16:41:32.575Z,68.50
2019-03-29T16:44:08.871Z,68.70
2019-03-29T16:46:44.011Z,68.90
2019-03-29T16:49:20.170Z,69.00
2019-03-29T16:51:55.240Z,68.70
2019-03-29T16:57:05.463Z,68.90
2019-03-29T17:07:26.009Z,69.90
2019-03-29T17:10:01.400Z,69.70
2019-03-29T17:12:37.530Z,69.90
2019-03-29T17:15:13.001Z,70.00
2019-03-29T17:28:09.014Z,70.80
2019-03-29T17:30:45.848Z,70.70
2019-03-29T17:41:07.490Z,71.20
2019-03-29T17:43:44.547Z,71.40
2019-03-29T17:48:54.558Z,72.20
2019-03-29T17:51:30.332Z,72.20
2019-03-29T17:56:40.419Z,73.10
2019-03-29T18:12:18.475Z,73.50
2019-03-29T18:17:28.652Z,73.50
2019-03-29T18:20:05.745Z,74.10
2019-03-29T18:25:16.791Z,75.00
2019-03-29T18:35:39.812Z,75.20
2019-03-29T18:58:57.339Z,76.10
2019-03-29T19:09:17.358Z,77.00
2019-03-29T19:11:53.386Z,78.50
2019-03-29T19:19:38.090Z,79.40
2019-03-29T19:37:44.005Z,83.70
2019-03-29T19:42:59.738Z,84.50
2019-03-29T19:53:40.957Z,85.70
2019-03-29T19:58:52.246Z,86.80
2019-03-29T20:04:03.664Z,87.10
2019-03-29T20:17:00.065Z,87.00
2019-03-29T20:35:07.394Z,88.10
2019-03-29T20:37:44.291Z,88.20
2019-03-29T20:40:20.174Z,88.30
2019-03-29T20:58:30.043Z,90.20
2019-03-29T21:14:06.522Z,90.50
2019-03-29T21:16:45.962Z,90.20
2019-03-29T21:19:21.060Z,90.10
2019-03-29T21:21:56.764Z,90.30
2019-03-29T21:24:31.855Z,90.20
2019-03-29T21:27:07.279Z,90.20
2019-03-29T21:29:44.163Z,90.40
2019-03-29T21:32:19.750Z,90.40
2019-03-29T21:34:54.845Z,90.30
2019-03-29T21:42:41.435Z,90.50
2019-03-29T22:11:12.275Z,91.20
2019-03-29T22:13:47.396Z,91.20
2019-03-29T22:16:22.585Z,91.10
2019-03-29T22:18:57.861Z,91.30
2019-03-29T22:21:35.192Z,91.50
2019-03-29T22:39:43.139Z,91.40
2019-03-29T23:23:56.247Z,92.70
2019-03-29T23:26:31.591Z,92.50
2019-03-29T23:29:08.162Z,92.50
2019-03-29T23:31:43.249Z,92.70
2019-03-29T23:34:18.646Z,92.90
2019-03-29T23:36:55.032Z,93.10
2019-03-29T23:39:30.559Z,93.00
